sensor_id;sensor_type;location;lat;lon;timestamp;temperature;humidity
50570;DHT22;36525;49.398;7.614;2024-03-23T00:52:31;10.20;99.90
50570;DHT22;36525;49.398;7.614;2024-03-23T00:54:56;10.20;99.90
50570;DHT22;36525;49.398;7.614;2024-03-23T00:57:22;10.20;99.90
50570;DHT22;36525;49.398;7.614;2024-03-23T00:59:48;10.20;99.90
50570;DHT22;36525;49.398;7.614;2024-03-23T01:02:14;10.20;99.90
50570;DHT22;36525;49.398;7.614;2024-03-23T01:04:40;10.30;99.90
50570;DHT22;36525;49.398;7.614;2024-03-23T01:07:05;10.20;99.90
50570;DHT22;36525;49.398;7.614;2024-03-23T01:09:31;10.20;99.90
50570;DHT22;36525;49.398;7.614;2024-03-23T01:11:57;10.20;99.90
50570;DHT22;36525;49.398;7.614;2024-03-23T01:14:23;10.20;99.90
50570;DHT22;36525;49.398;7.614;2024-03-23T01:16:49;10.20;99.90
50570;DHT22;36525;49.398;7.614;2024-03-23T01:19:15;10.10;99.90
50570;DHT22;36525;49.398;7.614;2024-03-23T01:21:41;10.10;99.90
50570;DHT22;36525;49.398;7.614;2024-03-23T01:24:09;10.10;99.90
50570;DHT22;36525;49.398;7.614;2024-03-23T01:26:36;10.00;99.90
50570;DHT22;36525;49.398;7.614;2024-03-23T01:29:02;10.00;99.90
50570;DHT22;36525;49.398;7.614;2024-03-23T01:31:28;10.00;99.90
50570;DHT22;36525;49.398;7.614;2024-03-23T01:33:54;10.10;99.90
50570;DHT22;36525;49.398;7.614;2024-03-23T01:36:20;10.10;99.90
50570;DHT22;36525;49.398;7.614;2024-03-23T01:38:46;10.00;99.90
50570;DHT22;36525;49.398;7.614;2024-03-23T01:41:12;10.00;99.90
50570;DHT22;36525;49.398;7.614;2024-03-23T01:43:38;10.00;99.90
50570;DHT22;36525;49.398;7.614;2024-03-23T01:46:04;10.00;99.90
50570;DHT22;36525;49.398;7.614;2024-03-23T01:48:30;10.00;99.90
50570;DHT22;36525;49.398;7.614;2024-03-23T01:50:55;10.00;99.90
50570;DHT22;36525;49.398;7.614;2024-03-23T01:53:21;10.00;99.90
50570;DHT22;36525;49.398;7.614;2024-03-23T01:55:49;10.00;99.90
50570;DHT22;36525;49.398;7.614;2024-03-23T01:58:16;10.10;99.90
50570;DHT22;36525;49.398;7.614;2024-03-23T02:00:42;10.10;99.90
50570;DHT22;36525;49.398;7.614;2024-03-23T02:03:26;10.10;99.90
50570;DHT22;36525;49.398;7.614;2024-03-23T02:05:53;10.10;99.90
50570;DHT22;36525;49.398;7.614;2024-03-23T02:08:20;10.10;99.90
50570;DHT22;36525;49.398;7.614;2024-03-23T02:10:48;10.10;99.90
50570;DHT22;36525;49.398;7.614;2024-03-23T02:13:15;10.00;99.90
50570;DHT22;36525;49.398;7.614;2024-03-23T02:15:41;10.10;99.90
50570;DHT22;36525;49.398;7.614;2024-03-23T02:18:07;10.10;99.90
50570;DHT22;36525;49.398;7.614;2024-03-23T02:20:37;10.10;99.90
50570;DHT22;36525;49.398;7.614;2024-03-23T02:23:13;10.10;99.90
50570;DHT22;36525;49.398;7.614;2024-03-23T02:25:39;10.10;99.90
50570;DHT22;36525;49.398;7.614;2024-03-23T02:28:05;10.10;99.90
50570;DHT22;36525;49.398;7.614;2024-03-23T02:30:31;10.10;99.90
50570;DHT22;36525;49.398;7.614;2024-03-23T02:32:57;10.20;99.90
50570;DHT22;36525;49.398;7.614;2024-03-23T02:35:23;10.20;99.90
50570;DHT22;36525;49.398;7.614;2024-03-23T02:37:49;10.20;99.90
50570;DHT22;36525;49.398;7.614;2024-03-23T02:40:15;10.30;99.90
50570;DHT22;36525;49.398;7.614;2024-03-23T02:42:41;10.30;99.90
50570;DHT22;36525;49.398;7.614;2024-03-23T02:45:07;10.20;99.90
50570;DHT22;36525;49.398;7.614;2024-03-23T02:47:34;10.20;99.90
50570;DHT22;36525;49.398;7.614;2024-03-23T02:50:00;10.30;99.90
50570;DHT22;36525;49.398;7.614;2024-03-23T02:52:26;10.20;99.90
50570;DHT22;36525;49.398;7.614;2024-03-23T02:54:52;10.10;99.90
50570;DHT22;36525;49.398;7.614;2024-03-23T02:57:18;10.10;99.90
50570;DHT22;36525;49.398;7.614;2024-03-23T02:59:44;10.10;99.90
50570;DHT22;36525;49.398;7.614;2024-03-23T03:02:09;10.10;99.90
50570;DHT22;36525;49.398;7.614;2024-03-23T03:04:36;10.00;99.90
50570;DHT22;36525;49.398;7.614;2024-03-23T03:07:03;10.00;99.90
50570;DHT22;36525;49.398;7.614;2024-03-23T03:09:29;10.00;99.90
50570;DHT22;36525;49.398;7.614;2024-03-23T03:11:55;10.00;99.90
50570;DHT22;36525;49.398;7.614;2024-03-23T03:14:21;10.00;99.90
50570;DHT22;36525;49.398;7.614;2024-03-23T03:16:48;10.00;99.90
50570;DHT22;36525;49.398;7.614;2024-03-23T03:19:14;10.00;99.90
50570;DHT22;36525;49.398;7.614;2024-03-23T03:21:42;10.00;99.90
50570;DHT22;36525;49.398;7.614;2024-03-23T03:24:07;9.90;99.90
50570;DHT22;36525;49.398;7.614;2024-03-23T03:26:33;9.90;99.90
50570;DHT22;36525;49.398;7.614;2024-03-23T03:28:59;10.00;99.90
50570;DHT22;36525;49.398;7.614;2024-03-23T03:31:25;9.90;99.90
50570;DHT22;36525;49.398;7.614;2024-03-23T03:33:51;9.90;99.90
50570;DHT22;36525;49.398;7.614;2024-03-23T03:36:17;9.80;99.90
50570;DHT22;36525;49.398;7.614;2024-03-23T03:38:42;9.80;99.90
50570;DHT22;36525;49.398;7.614;2024-03-23T03:41:08;9.80;99.90
50570;DHT22;36525;49.398;7.614;2024-03-23T03:43:34;9.80;99.90
50570;DHT22;36525;49.398;7.614;2024-03-23T03:46:00;9.70;99.90
50570;DHT22;36525;49.398;7.614;2024-03-23T03:48:26;9.70;99.90
50570;DHT22;36525;49.398;7.614;2024-03-23T03:50:52;9.70;99.90
50570;DHT22;36525;49.398;7.614;2024-03-23T03:53:19;9.70;99.90
50570;DHT22;36525;49.398;7.614;2024-03-23T03:55:46;9.60;99.90
50570;DHT22;36525;49.398;7.614;2024-03-23T03:58:12;9.50;99.90
50570;DHT22;36525;49.398;7.614;2024-03-23T04:00:37;9.40;99.90
50570;DHT22;36525;49.398;7.614;2024-03-23T04:03:03;9.30;99.90
50570;DHT22;36525;49.398;7.614;2024-03-23T04:05:29;9.10;99.90
50570;DHT22;36525;49.398;7.614;2024-03-23T04:07:55;9.00;99.90
50570;DHT22;36525;49.398;7.614;2024-03-23T04:10:21;9.00;99.90
50570;DHT22;36525;49.398;7.614;2024-03-23T04:12:47;8.90;99.90
50570;DHT22;36525;49.398;7.614;2024-03-23T04:15:13;8.80;99.90
50570;DHT22;36525;49.398;7.614;2024-03-23T04:17:39;8.70;99.90
50570;DHT22;36525;49.398;7.614;2024-03-23T04:20:08;8.70;99.90
50570;DHT22;36525;49.398;7.614;2024-03-23T04:22:37;8.60;99.90
50570;DHT22;36525;49.398;7.614;2024-03-23T04:25:03;8.50;99.90
50570;DHT22;36525;49.398;7.614;2024-03-23T04:27:33;8.60;99.90
50570;DHT22;36525;49.398;7.614;2024-03-23T04:29:59;8.50;99.90
50570;DHT22;36525;49.398;7.614;2024-03-23T04:32:27;8.40;99.90
50570;DHT22;36525;49.398;7.614;2024-03-23T04:34:53;8.40;99.90
50570;DHT22;36525;49.398;7.614;2024-03-23T04:37:20;8.30;99.90
50570;DHT22;36525;49.398;7.614;2024-03-23T04:39:46;8.20;99.90
50570;DHT22;36525;49.398;7.614;2024-03-23T04:42:14;8.20;99.90
50570;DHT22;36525;49.398;7.614;2024-03-23T04:44:40;8.10;99.90
50570;DHT22;36525;49.398;7.614;2024-03-23T04:47:06;7.90;99.90
50570;DHT22;36525;49.398;7.614;2024-03-23T04:49:32;7.90;99.90
50570;DHT22;36525;49.398;7.614;2024-03-23T04:51:58;7.80;99.90
50570;DHT22;36525;49.398;7.614;2024-03-23T04:54:24;7.90;99.90
50570;DHT22;36525;49.398;7.614;2024-03-23T04:56:50;7.80;99.90
50570;DHT22;36525;49.398;7.614;2024-03-23T04:59:15;7.80;99.90
50570;DHT22;36525;49.398;7.614;2024-03-23T05:01:41;7.60;99.90
50570;DHT22;36525;49.398;7.614;2024-03-23T05:04:09;7.40;99.90
50570;DHT22;36525;49.398;7.614;2024-03-23T05:06:35;7.40;99.90
50570;DHT22;36525;49.398;7.614;2024-03-23T05:09:01;7.50;99.90
50570;DHT22;36525;49.398;7.614;2024-03-23T05:11:37;7.60;99.90
50570;DHT22;36525;49.398;7.614;2024-03-23T05:14:04;7.70;99.90
50570;DHT22;36525;49.398;7.614;2024-03-23T05:16:30;7.50;99.90
50570;DHT22;36525;49.398;7.614;2024-03-23T05:18:56;7.50;99.90
50570;DHT22;36525;49.398;7.614;2024-03-23T05:21:21;7.30;99.90
50570;DHT22;36525;49.398;7.614;2024-03-23T05:23:47;7.30;99.90
50570;DHT22;36525;49.398;7.614;2024-03-23T05:26:14;7.30;99.90
50570;DHT22;36525;49.398;7.614;2024-03-23T05:28:40;7.40;99.90
50570;DHT22;36525;49.398;7.614;2024-03-23T05:31:05;7.30;99.90
50570;DHT22;36525;49.398;7.614;2024-03-23T05:33:31;7.30;99.90
50570;DHT22;36525;49.398;7.614;2024-03-23T05:35:58;7.30;99.90
50570;DHT22;36525;49.398;7.614;2024-03-23T05:38:25;7.30;99.90
50570;DHT22;36525;49.398;7.614;2024-03-23T05:43:24;7.10;99.90
50570;DHT22;36525;49.398;7.614;2024-03-23T05:45:56;7.30;99.90
50570;DHT22;36525;49.398;7.614;2024-03-23T05:48:23;7.30;99.90
50570;DHT22;36525;49.398;7.614;2024-03-23T05:50:49;7.40;99.90
50570;DHT22;36525;49.398;7.614;2024-03-23T05:53:15;7.40;99.90
50570;DHT22;36525;49.398;7.614;2024-03-23T05:55:42;7.50;99.90
50570;DHT22;36525;49.398;7.614;2024-03-23T05:58:08;7.50;99.90
50570;DHT22;36525;49.398;7.614;2024-03-23T06:00:33;7.50;99.90
50570;DHT22;36525;49.398;7.614;2024-03-23T06:02:59;7.30;99.90
50570;DHT22;36525;49.398;7.614;2024-03-23T06:05:26;7.20;99.90
50570;DHT22;36525;49.398;7.614;2024-03-23T06:07:51;7.20;99.90
50570;DHT22;36525;49.398;7.614;2024-03-23T06:10:18;7.10;99.90
50570;DHT22;36525;49.398;7.614;2024-03-23T06:12:45;7.10;99.90
50570;DHT22;36525;49.398;7.614;2024-03-23T06:15:11;7.00;99.90
50570;DHT22;36525;49.398;7.614;2024-03-23T06:17:38;6.90;99.90
50570;DHT22;36525;49.398;7.614;2024-03-23T06:20:04;6.80;99.90
50570;DHT22;36525;49.398;7.614;2024-03-23T06:22:32;6.80;99.90
50570;DHT22;36525;49.398;7.614;2024-03-23T06:24:58;6.80;99.90
50570;DHT22;36525;49.398;7.614;2024-03-23T06:27:23;6.90;99.90
50570;DHT22;36525;49.398;7.614;2024-03-23T06:29:49;7.10;99.90
50570;DHT22;36525;49.398;7.614;2024-03-23T06:32:15;7.10;99.90
50570;DHT22;36525;49.398;7.614;2024-03-23T06:34:41;7.10;99.90
50570;DHT22;36525;49.398;7.614;2024-03-23T06:37:07;7.20;99.90
50570;DHT22;36525;49.398;7.614;2024-03-23T06:39:38;7.30;99.90
50570;DHT22;36525;49.398;7.614;2024-03-23T06:42:04;7.10;99.90
50570;DHT22;36525;49.398;7.614;2024-03-23T06:44:31;7.20;99.90
50570;DHT22;36525;49.398;7.614;2024-03-23T06:46:57;7.30;99.90
50570;DHT22;36525;49.398;7.614;2024-03-23T06:49:23;7.30;99.90
50570;DHT22;36525;49.398;7.614;2024-03-23T06:51:49;7.10;99.90
50570;DHT22;36525;49.398;7.614;2024-03-23T06:54:18;7.20;99.90
50570;DHT22;36525;49.398;7.614;2024-03-23T06:56:45;7.40;99.90
50570;DHT22;36525;49.398;7.614;2024-03-23T06:59:11;7.40;99.90
50570;DHT22;36525;49.398;7.614;2024-03-23T07:01:36;7.50;99.90
50570;DHT22;36525;49.398;7.614;2024-03-23T07:04:02;7.50;99.90
50570;DHT22;36525;49.398;7.614;2024-03-23T07:06:29;7.40;99.90
50570;DHT22;36525;49.398;7.614;2024-03-23T07:08:56;7.50;99.90
50570;DHT22;36525;49.398;7.614;2024-03-23T07:11:22;7.60;99.90
50570;DHT22;36525;49.398;7.614;2024-03-23T07:13:51;7.30;99.90
50570;DHT22;36525;49.398;7.614;2024-03-23T07:16:19;7.20;99.90
50570;DHT22;36525;49.398;7.614;2024-03-23T07:18:46;7.40;99.90
50570;DHT22;36525;49.398;7.614;2024-03-23T07:21:11;7.60;99.90
50570;DHT22;36525;49.398;7.614;2024-03-23T07:23:37;7.50;99.90
50570;DHT22;36525;49.398;7.614;2024-03-23T07:26:04;7.60;99.90
50570;DHT22;36525;49.398;7.614;2024-03-23T07:28:33;7.30;99.90
50570;DHT22;36525;49.398;7.614;2024-03-23T07:33:27;7.50;99.90
50570;DHT22;36525;49.398;7.614;2024-03-23T07:35:53;7.70;99.90
50570;DHT22;36525;49.398;7.614;2024-03-23T07:38:19;8.00;99.90
50570;DHT22;36525;49.398;7.614;2024-03-23T07:40:45;8.10;99.90
50570;DHT22;36525;49.398;7.614;2024-03-23T07:43:11;7.60;99.90
50570;DHT22;36525;49.398;7.614;2024-03-23T07:45:36;7.50;99.90
50570;DHT22;36525;49.398;7.614;2024-03-23T07:48:03;7.40;99.90
50570;DHT22;36525;49.398;7.614;2024-03-23T07:50:30;7.40;99.90
50570;DHT22;36525;49.398;7.614;2024-03-23T07:52:56;7.50;99.90
50570;DHT22;36525;49.398;7.614;2024-03-23T07:55:21;7.80;99.90
50570;DHT22;36525;49.398;7.614;2024-03-23T07:57:47;8.00;99.90
50570;DHT22;36525;49.398;7.614;2024-03-23T08:00:13;8.00;99.90
50570;DHT22;36525;49.398;7.614;2024-03-23T08:02:39;8.10;99.90
50570;DHT22;36525;49.398;7.614;2024-03-23T08:05:05;8.40;99.90
50570;DHT22;36525;49.398;7.614;2024-03-23T08:07:33;8.60;99.90
50570;DHT22;36525;49.398;7.614;2024-03-23T08:09:58;8.90;99.90
50570;DHT22;36525;49.398;7.614;2024-03-23T08:12:25;9.20;99.90
50570;DHT22;36525;49.398;7.614;2024-03-23T08:14:51;9.80;99.90
50570;DHT22;36525;49.398;7.614;2024-03-23T08:17:17;9.40;99.90
50570;DHT22;36525;49.398;7.614;2024-03-23T08:19:43;8.80;99.90
50570;DHT22;36525;49.398;7.614;2024-03-23T08:22:09;8.30;99.90
50570;DHT22;36525;49.398;7.614;2024-03-23T08:24:34;8.10;99.90
50570;DHT22;36525;49.398;7.614;2024-03-23T08:27:00;7.70;99.90
50570;DHT22;36525;49.398;7.614;2024-03-23T08:29:26;7.90;99.90
50570;DHT22;36525;49.398;7.614;2024-03-23T08:31:52;7.80;99.90
50570;DHT22;36525;49.398;7.614;2024-03-23T08:34:18;7.60;99.90
50570;DHT22;36525;49.398;7.614;2024-03-23T08:36:43;7.70;99.90
50570;DHT22;36525;49.398;7.614;2024-03-23T08:39:09;8.10;99.90
50570;DHT22;36525;49.398;7.614;2024-03-23T08:41:35;8.50;99.90
50570;DHT22;36525;49.398;7.614;2024-03-23T08:44:01;9.60;99.90
50570;DHT22;36525;49.398;7.614;2024-03-23T08:46:27;10.20;99.90
50570;DHT22;36525;49.398;7.614;2024-03-23T08:48:53;10.30;99.90
50570;DHT22;36525;49.398;7.614;2024-03-23T08:51:19;9.80;99.90
50570;DHT22;36525;49.398;7.614;2024-03-23T08:53:45;9.50;99.90
50570;DHT22;36525;49.398;7.614;2024-03-23T08:56:11;9.70;99.90
50570;DHT22;36525;49.398;7.614;2024-03-23T08:58:37;9.50;99.90
50570;DHT22;36525;49.398;7.614;2024-03-23T09:03:37;9.70;99.90
50570;DHT22;36525;49.398;7.614;2024-03-23T09:06:07;10.10;99.90
50570;DHT22;36525;49.398;7.614;2024-03-23T09:08:34;10.10;99.90
50570;DHT22;36525;49.398;7.614;2024-03-23T09:11:08;9.90;99.90
50570;DHT22;36525;49.398;7.614;2024-03-23T09:13:35;9.30;99.90
50570;DHT22;36525;49.398;7.614;2024-03-23T09:16:02;9.00;99.90
50570;DHT22;36525;49.398;7.614;2024-03-23T09:18:34;8.90;99.90
50570;DHT22;36525;49.398;7.614;2024-03-23T09:21:01;8.80;99.90
50570;DHT22;36525;49.398;7.614;2024-03-23T09:23:27;8.50;99.90
50570;DHT22;36525;49.398;7.614;2024-03-23T09:25:53;8.60;99.90
50570;DHT22;36525;49.398;7.614;2024-03-23T09:28:19;8.50;99.90
50570;DHT22;36525;49.398;7.614;2024-03-23T09:30:44;8.40;99.90
50570;DHT22;36525;49.398;7.614;2024-03-23T09:33:11;8.30;99.90
50570;DHT22;36525;49.398;7.614;2024-03-23T09:35:42;8.70;99.90
50570;DHT22;36525;49.398;7.614;2024-03-23T09:38:08;9.60;99.90
50570;DHT22;36525;49.398;7.614;2024-03-23T09:40:35;9.80;99.90
50570;DHT22;36525;49.398;7.614;2024-03-23T09:43:06;10.50;99.90
50570;DHT22;36525;49.398;7.614;2024-03-23T09:45:32;10.90;99.90
50570;DHT22;36525;49.398;7.614;2024-03-23T09:48:01;10.80;99.90
50570;DHT22;36525;49.398;7.614;2024-03-23T09:50:28;11.50;99.90
50570;DHT22;36525;49.398;7.614;2024-03-23T09:52:54;11.20;99.90
50570;DHT22;36525;49.398;7.614;2024-03-23T09:55:20;11.80;99.90
50570;DHT22;36525;49.398;7.614;2024-03-23T09:57:45;11.20;99.90
50570;DHT22;36525;49.398;7.614;2024-03-23T10:00:11;10.80;99.90
50570;DHT22;36525;49.398;7.614;2024-03-23T10:02:38;10.70;99.90
50570;DHT22;36525;49.398;7.614;2024-03-23T10:05:04;10.80;99.90
50570;DHT22;36525;49.398;7.614;2024-03-23T10:07:30;10.20;99.90
50570;DHT22;36525;49.398;7.614;2024-03-23T10:09:56;10.50;99.90
50570;DHT22;36525;49.398;7.614;2024-03-23T10:12:22;10.30;99.90
50570;DHT22;36525;49.398;7.614;2024-03-23T10:14:49;10.90;99.90
50570;DHT22;36525;49.398;7.614;2024-03-23T10:17:19;11.00;99.90
50570;DHT22;36525;49.398;7.614;2024-03-23T10:19:48;10.30;99.90
50570;DHT22;36525;49.398;7.614;2024-03-23T10:22:19;10.30;99.90
50570;DHT22;36525;49.398;7.614;2024-03-23T10:24:45;10.90;99.90
50570;DHT22;36525;49.398;7.614;2024-03-23T10:27:15;10.90;99.90
50570;DHT22;36525;49.398;7.614;2024-03-23T10:29:42;10.90;99.90
50570;DHT22;36525;49.398;7.614;2024-03-23T10:32:08;10.80;99.90
50570;DHT22;36525;49.398;7.614;2024-03-23T10:34:38;10.80;99.90
50570;DHT22;36525;49.398;7.614;2024-03-23T10:37:05;10.20;99.90
50570;DHT22;36525;49.398;7.614;2024-03-23T10:39:40;9.90;99.90
50570;DHT22;36525;49.398;7.614;2024-03-23T10:42:07;9.80;99.90
50570;DHT22;36525;49.398;7.614;2024-03-23T10:44:34;9.80;99.90
50570;DHT22;36525;49.398;7.614;2024-03-23T10:47:00;9.40;99.90
50570;DHT22;36525;49.398;7.614;2024-03-23T10:49:28;9.20;99.90
50570;DHT22;36525;49.398;7.614;2024-03-23T10:51:56;8.90;99.90
50570;DHT22;36525;49.398;7.614;2024-03-23T10:54:23;8.30;99.90
50570;DHT22;36525;49.398;7.614;2024-03-23T10:56:50;7.60;99.90
50570;DHT22;36525;49.398;7.614;2024-03-23T10:59:19;7.10;99.90
50570;DHT22;36525;49.398;7.614;2024-03-23T11:01:55;7.20;99.90
50570;DHT22;36525;49.398;7.614;2024-03-23T11:04:32;7.50;99.90
50570;DHT22;36525;49.398;7.614;2024-03-23T11:06:58;7.90;99.90
50570;DHT22;36525;49.398;7.614;2024-03-23T11:14:48;8.20;99.90
50570;DHT22;36525;49.398;7.614;2024-03-23T11:17:22;8.10;99.90
50570;DHT22;36525;49.398;7.614;2024-03-23T11:22:43;8.10;99.90
50570;DHT22;36525;49.398;7.614;2024-03-23T11:27:46;6.60;99.90
50570;DHT22;36525;49.398;7.614;2024-03-23T11:32:46;7.00;99.90
50570;DHT22;36525;49.398;7.614;2024-03-23T11:40:39;8.00;99.90
50570;DHT22;36525;49.398;7.614;2024-03-23T11:43:10;8.20;99.90
50570;DHT22;36525;49.398;7.614;2024-03-23T11:45:38;8.30;99.90
50570;DHT22;36525;49.398;7.614;2024-03-23T11:48:06;8.10;99.90
50570;DHT22;36525;49.398;7.614;2024-03-23T11:50:35;8.40;99.90
50570;DHT22;36525;49.398;7.614;2024-03-23T11:53:17;8.40;99.90
50570;DHT22;36525;49.398;7.614;2024-03-23T11:58:22;7.10;99.90
50570;DHT22;36525;49.398;7.614;2024-03-23T12:00:50;6.40;99.90
50570;DHT22;36525;49.398;7.614;2024-03-23T12:03:20;5.80;99.90
50570;DHT22;36525;49.398;7.614;2024-03-23T12:05:51;5.40;99.90
50570;DHT22;36525;49.398;7.614;2024-03-23T12:10:48;4.50;99.90
50570;DHT22;36525;49.398;7.614;2024-03-23T12:13:19;4.40;99.90
50570;DHT22;36525;49.398;7.614;2024-03-23T12:15:47;4.50;99.90
50570;DHT22;36525;49.398;7.614;2024-03-23T12:18:15;4.80;99.90
50570;DHT22;36525;49.398;7.614;2024-03-23T12:20:41;4.90;99.90
50570;DHT22;36525;49.398;7.614;2024-03-23T12:23:07;5.10;99.90
50570;DHT22;36525;49.398;7.614;2024-03-23T12:25:34;5.00;99.90
50570;DHT22;36525;49.398;7.614;2024-03-23T12:28:00;5.10;99.90
50570;DHT22;36525;49.398;7.614;2024-03-23T12:30:26;5.10;99.90
50570;DHT22;36525;49.398;7.614;2024-03-23T12:32:52;5.00;99.90
50570;DHT22;36525;49.398;7.614;2024-03-23T12:35:18;5.10;99.90
50570;DHT22;36525;49.398;7.614;2024-03-23T12:37:44;5.10;99.90
50570;DHT22;36525;49.398;7.614;2024-03-23T12:40:10;5.20;99.90
50570;DHT22;36525;49.398;7.614;2024-03-23T12:42:36;5.20;99.90
50570;DHT22;36525;49.398;7.614;2024-03-23T12:45:02;5.30;99.90
50570;DHT22;36525;49.398;7.614;2024-03-23T12:47:32;5.40;99.90
50570;DHT22;36525;49.398;7.614;2024-03-23T12:49:58;5.70;99.90
50570;DHT22;36525;49.398;7.614;2024-03-23T12:52:24;6.00;99.90
50570;DHT22;36525;49.398;7.614;2024-03-23T12:54:54;6.40;99.90
50570;DHT22;36525;49.398;7.614;2024-03-23T12:57:23;6.80;99.90
50570;DHT22;36525;49.398;7.614;2024-03-23T12:59:50;6.70;99.90
50570;DHT22;36525;49.398;7.614;2024-03-23T13:02:17;6.70;99.90
50570;DHT22;36525;49.398;7.614;2024-03-23T13:04:49;6.60;99.90
50570;DHT22;36525;49.398;7.614;2024-03-23T13:07:15;6.50;99.90
50570;DHT22;36525;49.398;7.614;2024-03-23T13:09:42;6.30;99.90
50570;DHT22;36525;49.398;7.614;2024-03-23T13:12:08;6.50;99.90
50570;DHT22;36525;49.398;7.614;2024-03-23T13:14:34;6.30;99.90
50570;DHT22;36525;49.398;7.614;2024-03-23T13:17:00;6.40;99.90
50570;DHT22;36525;49.398;7.614;2024-03-23T13:19:26;6.60;99.90
50570;DHT22;36525;49.398;7.614;2024-03-23T13:21:53;6.90;99.90
50570;DHT22;36525;49.398;7.614;2024-03-23T13:24:24;7.30;99.90
50570;DHT22;36525;49.398;7.614;2024-03-23T13:26:50;7.70;99.90
50570;DHT22;36525;49.398;7.614;2024-03-23T13:29:17;8.70;99.90
50570;DHT22;36525;49.398;7.614;2024-03-23T13:31:46;9.60;99.90
50570;DHT22;36525;49.398;7.614;2024-03-23T13:34:12;9.10;99.90
50570;DHT22;36525;49.398;7.614;2024-03-23T13:36:41;8.50;99.90
50570;DHT22;36525;49.398;7.614;2024-03-23T13:39:07;8.90;99.90
50570;DHT22;36525;49.398;7.614;2024-03-23T13:41:39;9.10;99.90
50570;DHT22;36525;49.398;7.614;2024-03-23T13:44:06;9.20;99.90
50570;DHT22;36525;49.398;7.614;2024-03-23T13:46:36;9.90;99.90
50570;DHT22;36525;49.398;7.614;2024-03-23T13:49:03;10.40;99.90
50570;DHT22;36525;49.398;7.614;2024-03-23T13:51:29;10.50;99.90
50570;DHT22;36525;49.398;7.614;2024-03-23T13:53:55;10.90;99.90
50570;DHT22;36525;49.398;7.614;2024-03-23T13:56:22;10.20;99.90
50570;DHT22;36525;49.398;7.614;2024-03-23T13:58:48;11.00;99.90
50570;DHT22;36525;49.398;7.614;2024-03-23T14:01:14;10.80;99.90
50570;DHT22;36525;49.398;7.614;2024-03-23T14:03:41;10.30;99.90
50570;DHT22;36525;49.398;7.614;2024-03-23T14:06:08;10.20;99.90
50570;DHT22;36525;49.398;7.614;2024-03-23T14:08:37;10.20;99.90
50570;DHT22;36525;49.398;7.614;2024-03-23T14:11:07;10.20;99.90
50570;DHT22;36525;49.398;7.614;2024-03-23T14:13:36;10.90;99.90
50570;DHT22;36525;49.398;7.614;2024-03-23T14:16:02;11.30;99.90
50570;DHT22;36525;49.398;7.614;2024-03-23T14:18:28;11.80;99.90
50570;DHT22;36525;49.398;7.614;2024-03-23T14:20:59;11.70;99.90
50570;DHT22;36525;49.398;7.614;2024-03-23T14:23:26;11.70;99.90
50570;DHT22;36525;49.398;7.614;2024-03-23T14:25:53;11.10;99.90
50570;DHT22;36525;49.398;7.614;2024-03-23T14:28:20;10.40;99.90
50570;DHT22;36525;49.398;7.614;2024-03-23T14:30:46;9.40;99.90
50570;DHT22;36525;49.398;7.614;2024-03-23T14:33:11;9.10;99.90
50570;DHT22;36525;49.398;7.614;2024-03-23T14:35:38;8.70;99.90
50570;DHT22;36525;49.398;7.614;2024-03-23T14:38:05;8.50;99.90
50570;DHT22;36525;49.398;7.614;2024-03-23T14:40:31;8.30;99.90
50570;DHT22;36525;49.398;7.614;2024-03-23T14:42:57;8.20;99.90
50570;DHT22;36525;49.398;7.614;2024-03-23T14:45:23;8.20;99.90
50570;DHT22;36525;49.398;7.614;2024-03-23T14:47:53;8.20;99.90
50570;DHT22;36525;49.398;7.614;2024-03-23T14:50:19;7.70;99.90
50570;DHT22;36525;49.398;7.614;2024-03-23T14:52:47;6.40;99.90
50570;DHT22;36525;49.398;7.614;2024-03-23T14:55:12;5.40;99.90
50570;DHT22;36525;49.398;7.614;2024-03-23T14:57:38;4.70;99.90
50570;DHT22;36525;49.398;7.614;2024-03-23T15:00:06;3.70;99.90
50570;DHT22;36525;49.398;7.614;2024-03-23T15:02:39;3.70;99.90
50570;DHT22;36525;49.398;7.614;2024-03-23T15:05:05;3.80;99.90
50570;DHT22;36525;49.398;7.614;2024-03-23T15:07:36;4.90;99.90
50570;DHT22;36525;49.398;7.614;2024-03-23T15:10:16;6.20;99.90
50570;DHT22;36525;49.398;7.614;2024-03-23T15:12:57;7.20;99.90
50570;DHT22;36525;49.398;7.614;2024-03-23T15:15:40;8.20;99.90
50570;DHT22;36525;49.398;7.614;2024-03-23T15:18:12;8.80;99.90
50570;DHT22;36525;49.398;7.614;2024-03-23T15:20:38;9.80;99.90
50570;DHT22;36525;49.398;7.614;2024-03-23T15:23:04;10.60;99.90
50570;DHT22;36525;49.398;7.614;2024-03-23T15:25:30;10.90;99.90
50570;DHT22;36525;49.398;7.614;2024-03-23T15:27:57;11.40;99.90
50570;DHT22;36525;49.398;7.614;2024-03-23T15:30:25;11.70;99.90
50570;DHT22;36525;49.398;7.614;2024-03-23T15:32:51;10.90;99.90
50570;DHT22;36525;49.398;7.614;2024-03-23T15:35:18;9.90;99.90
50570;DHT22;36525;49.398;7.614;2024-03-23T15:37:45;8.90;99.90
50570;DHT22;36525;49.398;7.614;2024-03-23T15:40:11;8.50;99.90
50570;DHT22;36525;49.398;7.614;2024-03-23T15:42:38;8.20;99.90
50570;DHT22;36525;49.398;7.614;2024-03-23T15:45:08;8.20;99.90
50570;DHT22;36525;49.398;7.614;2024-03-23T15:47:35;7.80;99.90
50570;DHT22;36525;49.398;7.614;2024-03-23T15:50:01;7.40;99.90
50570;DHT22;36525;49.398;7.614;2024-03-23T15:52:58;6.90;99.90
50570;DHT22;36525;49.398;7.614;2024-03-23T15:55:43;6.80;99.90
50570;DHT22;36525;49.398;7.614;2024-03-23T15:58:11;6.50;99.90
50570;DHT22;36525;49.398;7.614;2024-03-23T16:00:37;6.10;99.90
50570;DHT22;36525;49.398;7.614;2024-03-23T16:03:03;5.90;99.90
50570;DHT22;36525;49.398;7.614;2024-03-23T16:05:29;5.30;99.90
50570;DHT22;36525;49.398;7.614;2024-03-23T16:08:01;4.80;99.90
50570;DHT22;36525;49.398;7.614;2024-03-23T16:10:33;4.50;99.90
50570;DHT22;36525;49.398;7.614;2024-03-23T16:13:23;4.30;99.90
50570;DHT22;36525;49.398;7.614;2024-03-23T16:16:14;4.00;99.90
50570;DHT22;36525;49.398;7.614;2024-03-23T16:18:57;4.00;99.90
50570;DHT22;36525;49.398;7.614;2024-03-23T16:21:23;3.90;99.90
50570;DHT22;36525;49.398;7.614;2024-03-23T16:23:49;3.60;99.90
50570;DHT22;36525;49.398;7.614;2024-03-23T16:26:15;3.40;99.90
50570;DHT22;36525;49.398;7.614;2024-03-23T16:28:42;3.40;99.90
50570;DHT22;36525;49.398;7.614;2024-03-23T16:31:08;3.50;99.90
50570;DHT22;36525;49.398;7.614;2024-03-23T16:33:35;3.60;99.90
50570;DHT22;36525;49.398;7.614;2024-03-23T16:36:05;3.80;99.90
50570;DHT22;36525;49.398;7.614;2024-03-23T16:38:38;4.00;99.90
50570;DHT22;36525;49.398;7.614;2024-03-23T16:41:06;4.00;99.90
50570;DHT22;36525;49.398;7.614;2024-03-23T16:43:36;4.00;99.90
50570;DHT22;36525;49.398;7.614;2024-03-23T16:48:37;3.90;99.90
50570;DHT22;36525;49.398;7.614;2024-03-23T16:51:06;3.90;99.90
50570;DHT22;36525;49.398;7.614;2024-03-23T16:53:33;3.90;99.90
50570;DHT22;36525;49.398;7.614;2024-03-23T16:55:59;4.00;99.90
50570;DHT22;36525;49.398;7.614;2024-03-23T16:58:29;4.10;99.90
50570;DHT22;36525;49.398;7.614;2024-03-23T17:00:56;4.10;99.90
50570;DHT22;36525;49.398;7.614;2024-03-23T17:03:35;4.10;99.90
50570;DHT22;36525;49.398;7.614;2024-03-23T17:06:05;4.10;99.90
50570;DHT22;36525;49.398;7.614;2024-03-23T17:08:31;4.10;99.90